Time;durP1;ratioP1;P1;durP2;ratioP2;P2;SDS_P1;SDS_P2;PMS_P1;PMS_P2;Temp;Humidity;BMP_temperature;BMP_pressure;BME280_temperature;BME280_humidity;BME280_pressure;Samples;Min_cycle;Max_cycle;Signal;HPM_P1;HPM_P2
2022/03/09 00:00:59;;;;;;;7.00;4.97;;;;;;;18.55;31.31;101867.03;5034839;28;20053;-76
2022/03/09 00:03:26;;;;;;;7.10;5.05;;;;;;;18.55;31.21;101864.38;5034955;28;20377;-77
2022/03/09 00:05:54;;;;;;;5.78;5.10;;;;;;;18.54;31.31;101868.03;5036603;28;20049;-76
2022/03/09 00:08:25;;;;;;;6.55;5.35;;;;;;;18.55;31.34;101867.03;5036085;28;20045;-76
2022/03/09 00:10:52;;;;;;;5.88;5.10;;;;;;;18.54;31.05;101868.88;5036275;28;20053;-76
2022/03/09 00:13:19;;;;;;;6.45;5.22;;;;;;;18.54;31.28;101878.75;5034655;28;20416;-75
2022/03/09 00:15:47;;;;;;;6.30;5.32;;;;;;;18.54;31.24;101878.75;5036007;28;20049;-75
2022/03/09 00:18:54;;;;;;;6.70;4.88;;;;;;;18.54;31.24;101876.91;5035213;28;20045;-75
2022/03/09 00:21:21;;;;;;;6.88;4.78;;;;;;;18.54;31.14;101882.28;5034561;28;20069;-75
2022/03/09 00:23:49;;;;;;;5.70;5.07;;;;;;;18.54;31.11;101889.47;5035561;28;20052;-76
2022/03/09 00:26:16;;;;;;;6.25;5.60;;;;;;;18.53;31.18;101887.75;5035920;28;20049;-76
2022/03/09 00:28:44;;;;;;;6.45;5.10;;;;;;;18.53;31.08;101890.44;5034808;28;20046;-76
2022/03/09 00:31:12;;;;;;;7.15;5.15;;;;;;;18.53;31.20;101896.66;5033951;28;20037;-76
2022/03/09 00:33:40;;;;;;;5.63;5.05;;;;;;;18.53;31.19;101901.16;5036041;28;20365;-76
2022/03/09 00:36:07;;;;;;;5.65;4.72;;;;;;;18.52;31.22;101908.34;5017946;28;20504;-75
2022/03/09 00:38:35;;;;;;;10.88;5.53;;;;;;;18.53;31.12;101911.91;5035425;28;20493;-75
2022/03/09 00:41:02;;;;;;;5.72;5.13;;;;;;;18.52;31.33;101907.50;5035551;28;20045;-75
2022/03/09 00:43:30;;;;;;;7.03;5.28;;;;;;;18.52;30.97;101905.66;5035878;28;20050;-75
2022/03/09 00:45:58;;;;;;;7.20;5.45;;;;;;;18.52;31.13;101904.81;5034252;28;20076;-75
2022/03/09 00:48:25;;;;;;;5.53;4.60;;;;;;;18.51;31.23;101900.38;5035501;28;20354;-75
2022/03/09 00:50:53;;;;;;;6.40;5.50;;;;;;;18.51;31.12;101909.31;5034223;28;20052;-75
2022/03/09 00:53:21;;;;;;;6.97;5.05;;;;;;;18.50;31.05;101904.03;5035216;28;20052;-76
2022/03/09 00:55:48;;;;;;;5.70;4.75;;;;;;;18.52;31.04;101902.13;5034998;28;20057;-76
2022/03/09 00:58:15;;;;;;;6.70;4.80;;;;;;;18.52;31.06;101902.13;5033341;28;20062;-76
2022/03/09 01:00:42;;;;;;;6.93;4.85;;;;;;;18.51;30.97;101905.75;5035181;28;20045;-76
2022/03/09 01:03:10;;;;;;;7.22;4.80;;;;;;;18.51;30.94;101909.31;5035127;28;20041;-77
2022/03/09 01:05:40;;;;;;;6.78;4.60;;;;;;;18.51;31.03;101908.44;5035369;28;20054;-76
2022/03/09 01:08:09;;;;;;;6.68;5.35;;;;;;;18.50;31.00;101894.16;5033995;28;20053;-76
2022/03/09 01:10:37;;;;;;;6.20;5.30;;;;;;;18.51;31.00;101895.03;5033785;28;20048;-76
2022/03/09 01:13:04;;;;;;;5.05;4.55;;;;;;;18.51;31.25;101895.03;5033370;28;20060;-75
2022/03/09 01:15:32;;;;;;;7.75;5.35;;;;;;;18.50;31.02;101888.81;5034687;28;20060;-75
2022/03/09 01:17:59;;;;;;;5.40;4.30;;;;;;;18.51;31.09;101895.03;5035114;28;20487;-75
2022/03/09 01:20:27;;;;;;;5.97;4.93;;;;;;;18.50;31.21;101888.81;5034454;28;20053;-75
2022/03/09 01:22:55;;;;;;;5.18;4.68;;;;;;;18.51;31.04;101886.97;5034981;28;20048;-75
2022/03/09 01:25:22;;;;;;;5.32;4.57;;;;;;;18.51;31.03;101884.31;5035075;28;20052;-75
2022/03/09 01:27:49;;;;;;;5.55;4.82;;;;;;;18.49;31.07;101876.38;5035006;28;20049;-75
2022/03/09 01:30:17;;;;;;;5.95;5.00;;;;;;;18.50;31.18;101872.72;5034613;28;20049;-75
2022/03/09 01:32:48;;;;;;;5.28;4.78;;;;;;;18.51;31.08;101870.88;5035018;28;20045;-75
2022/03/09 01:35:16;;;;;;;5.55;4.90;;;;;;;18.51;31.02;101869.09;5034464;28;20045;-75
2022/03/09 01:37:45;;;;;;;5.57;4.47;;;;;;;18.51;30.98;101870.88;5033671;28;20046;-75
2022/03/09 01:40:14;;;;;;;6.43;5.25;;;;;;;18.49;31.12;101876.38;5017478;28;20056;-75
2022/03/09 01:42:42;;;;;;;5.78;5.18;;;;;;;18.49;31.09;101867.47;5033634;28;20052;-75
2022/03/09 01:45:12;;;;;;;6.13;4.93;;;;;;;18.49;31.05;101862.97;5034712;28;20456;-76
2022/03/09 01:47:40;;;;;;;6.68;5.82;;;;;;;18.49;31.09;101860.28;5033739;28;20068;-76
2022/03/09 01:50:09;;;;;;;5.80;4.38;;;;;;;18.48;31.05;101863.94;5033960;28;20053;-76
2022/03/09 01:52:37;;;;;;;5.43;4.82;;;;;;;18.47;30.98;101867.59;5034135;28;20049;-76
2022/03/09 01:55:05;;;;;;;5.57;4.72;;;;;;;18.49;31.04;101867.47;5034190;28;20053;-76
2022/03/09 01:57:33;;;;;;;5.60;5.00;;;;;;;18.48;31.09;101865.75;5034277;28;20402;-76
2022/03/09 02:00:02;;;;;;;5.13;4.63;;;;;;;18.47;31.13;101867.59;5034166;28;20049;-76
2022/03/09 02:02:32;;;;;;;7.18;4.95;;;;;;;18.47;31.17;101866.69;5040839;28;20057;-76
2022/03/09 02:05:00;;;;;;;5.55;5.05;;;;;;;18.47;31.13;101870.25;5016036;28;20376;-76
2022/03/09 02:10:13;;;;;;;6.78;4.97;;;;;;;18.47;31.05;101872.94;5034225;28;20049;-76
2022/03/09 02:12:40;;;;;;;6.63;4.63;;;;;;;18.47;31.04;101869.38;5033846;28;20053;-76
2022/03/09 02:15:08;;;;;;;5.28;4.68;;;;;;;18.46;31.12;101875.72;5034147;28;20048;-76
2022/03/09 02:17:35;;;;;;;5.60;4.90;;;;;;;18.47;31.10;101872.06;5033767;28;20049;-76
2022/03/09 02:20:03;;;;;;;5.13;4.63;;;;;;;18.47;31.21;101872.06;5034255;28;20049;-76
2022/03/09 02:22:33;;;;;;;7.28;5.25;;;;;;;18.46;31.02;101873.88;5033964;28;20049;-76
2022/03/09 02:25:06;;;;;;;6.28;4.68;;;;;;;18.46;31.13;101870.34;5032414;28;20041;-76
2022/03/09 02:27:34;;;;;;;7.45;5.00;;;;;;;18.47;31.02;101878.31;5033664;28;20052;-76
2022/03/09 02:30:07;;;;;;;5.80;4.82;;;;;;;18.46;31.04;101875.72;5033488;28;20056;-76
2022/03/09 02:32:45;;;;;;;5.93;4.85;;;;;;;18.46;31.00;101878.38;5033325;28;20049;-76
2022/03/09 02:35:13;;;;;;;6.50;4.90;;;;;;;18.46;30.97;101881.06;5033757;28;20042;-76
2022/03/09 02:37:42;;;;;;;6.40;4.68;;;;;;;18.45;31.07;101876.69;5032623;28;20473;-76
2022/03/09 02:40:11;;;;;;;5.75;4.78;;;;;;;18.44;31.00;101881.19;5032013;28;20056;-76
2022/03/09 02:42:40;;;;;;;5.53;4.75;;;;;;;18.44;31.08;101880.31;5032285;28;20401;-76
2022/03/09 02:45:10;;;;;;;5.07;4.55;;;;;;;18.45;30.92;101880.22;5033554;28;20049;-76
2022/03/09 02:47:41;;;;;;;5.40;4.80;;;;;;;18.45;31.12;101879.34;5031721;28;20049;-76
2022/03/09 02:50:12;;;;;;;6.35;4.35;;;;;;;18.44;31.06;101873.13;5033140;28;20473;-76
2022/03/09 02:52:40;;;;;;;6.28;4.90;;;;;;;18.44;30.97;101877.66;5032051;28;20049;-76
2022/03/09 02:55:09;;;;;;;5.07;4.57;;;;;;;18.44;30.85;101881.19;5033172;28;20400;-76
2022/03/09 02:57:37;;;;;;;5.50;4.28;;;;;;;18.44;31.03;101873.13;5033329;28;20378;-76
2022/03/09 03:00:07;;;;;;;4.88;4.35;;;;;;;18.43;30.98;101886.63;5033208;28;20053;-76
2022/03/09 03:02:36;;;;;;;5.10;4.60;;;;;;;18.44;31.10;101872.28;5033258;28;20045;-75
2022/03/09 03:05:05;;;;;;;5.95;4.45;;;;;;;18.43;31.07;101865.19;5032304;28;20038;-75
2022/03/09 03:07:33;;;;;;;5.47;4.80;;;;;;;18.44;30.99;101881.19;5033273;28;20480;-75
2022/03/09 03:10:00;;;;;;;5.40;4.88;;;;;;;18.43;31.01;101875.91;5031502;28;20506;-76
2022/03/09 03:12:28;;;;;;;5.07;4.35;;;;;;;18.43;31.00;101881.25;5033391;28;20374;-76
2022/03/09 03:14:55;;;;;;;5.45;4.13;;;;;;;18.42;31.04;101885.78;5033094;28;20049;-76
2022/03/09 03:17:23;;;;;;;6.03;4.88;;;;;;;18.44;31.04;101885.69;5033334;28;20049;-76
2022/03/09 03:19:51;;;;;;;5.15;4.25;;;;;;;18.43;31.04;101892.00;5033296;28;20057;-76
2022/03/09 03:22:18;;;;;;;4.80;4.30;;;;;;;18.42;31.03;101877.72;5033259;28;20056;-75
2022/03/09 03:24:49;;;;;;;6.15;4.32;;;;;;;18.42;31.18;101880.41;5032107;28;20062;-75
2022/03/09 03:27:17;;;;;;;5.93;4.63;;;;;;;18.42;30.96;101884.91;5033384;28;20041;-75
2022/03/09 03:29:44;;;;;;;5.53;4.25;;;;;;;18.41;31.00;101878.69;5032972;28;20492;-75
2022/03/09 03:32:12;;;;;;;5.78;4.80;;;;;;;18.41;31.14;101886.75;5033030;28;20105;-76
2022/03/09 03:34:39;;;;;;;5.10;4.18;;;;;;;18.42;31.03;101882.22;5033148;28;20049;-76
2022/03/09 03:37:07;;;;;;;4.90;4.40;;;;;;;18.40;30.99;101882.34;5033185;28;20389;-75
2022/03/09 03:39:34;;;;;;;4.90;4.18;;;;;;;18.42;31.15;101884.91;5033035;28;20049;-75
2022/03/09 03:42:02;;;;;;;4.88;4.45;;;;;;;18.41;31.02;101877.84;5033149;28;20058;-76
2022/03/09 03:44:29;;;;;;;5.50;4.72;;;;;;;18.40;31.05;101873.44;5032472;28;20397;-76
2022/03/09 03:46:57;;;;;;;4.78;4.20;;;;;;;18.40;30.86;101878.81;5031647;28;20057;-76
2022/03/09 03:49:24;;;;;;;5.22;4.57;;;;;;;18.40;31.07;101876.13;5032164;28;20045;-75
2022/03/09 03:51:52;;;;;;;6.07;4.15;;;;;;;18.41;31.00;101881.38;5032736;28;20050;-76
2022/03/09 03:54:19;;;;;;;7.22;5.45;;;;;;;18.40;31.01;101892.22;5032672;28;20041;-75
2022/03/09 03:56:46;;;;;;;5.70;4.70;;;;;;;18.39;31.07;101880.63;5032939;28;20049;-76
2022/03/09 03:59:14;;;;;;;7.60;5.05;;;;;;;18.40;30.95;101886.84;5032299;28;20061;-75
2022/03/09 04:01:42;;;;;;;5.30;4.40;;;;;;;18.39;30.99;101879.75;5032807;28;20049;-76
2022/03/09 04:04:10;;;;;;;4.07;3.67;;;;;;;18.39;30.91;101880.63;5032784;28;20045;-75
2022/03/09 04:06:37;;;;;;;4.55;4.10;;;;;;;18.39;30.93;101877.06;5033995;28;20428;-76
2022/03/09 04:09:05;;;;;;;4.88;4.28;;;;;;;18.39;30.89;101879.75;5035185;28;20053;-76
2022/03/09 04:11:32;;;;;;;5.35;4.20;;;;;;;18.39;30.80;101882.41;5036038;28;20049;-76
2022/03/09 04:14:03;;;;;;;4.55;4.15;;;;;;;18.38;30.93;101883.41;5035948;28;20057;-76
2022/03/09 04:16:31;;;;;;;5.07;4.18;;;;;;;18.38;30.90;101878.03;5036205;28;20055;-75
2022/03/09 04:18:59;;;;;;;6.40;4.30;;;;;;;18.38;30.82;101878.03;5035258;28;20067;-76
2022/03/09 04:21:26;;;;;;;4.55;3.75;;;;;;;18.37;30.81;101881.69;5035881;28;20052;-76
2022/03/09 04:23:54;;;;;;;4.82;4.28;;;;;;;18.38;30.92;101888.75;5036005;28;20468;-76
2022/03/09 04:26:21;;;;;;;3.85;3.45;;;;;;;18.37;30.98;101892.41;5035904;28;20045;-76
2022/03/09 04:28:48;;;;;;;5.55;4.40;;;;;;;18.36;30.87;101890.69;5035690;28;20049;-76
2022/03/09 04:31:16;;;;;;;6.28;4.75;;;;;;;18.37;31.02;101887.03;5035844;28;20041;-76
2022/03/09 04:33:43;;;;;;;5.22;4.72;;;;;;;18.37;31.14;101881.69;5035457;28;20056;-77
2022/03/09 04:36:11;;;;;;;5.28;4.50;;;;;;;18.35;31.15;101884.47;5035925;28;20038;-77
2022/03/09 04:38:39;;;;;;;4.68;4.03;;;;;;;18.36;31.02;101891.53;5035936;28;20049;-76
2022/03/09 04:41:09;;;;;;;4.97;4.47;;;;;;;18.36;31.13;101894.22;5034105;28;20068;-76
2022/03/09 04:43:37;;;;;;;4.93;4.18;;;;;;;18.35;31.23;101883.59;5035347;28;20511;-76
2022/03/09 04:46:04;;;;;;;5.28;4.47;;;;;;;18.35;30.97;101888.94;5035618;28;20448;-76
2022/03/09 04:48:32;;;;;;;4.50;3.95;;;;;;;18.35;31.00;101883.59;5034184;28;20045;-75
2022/03/09 04:51:02;;;;;;;5.30;4.03;;;;;;;18.35;31.03;101889.84;5035744;28;20068;-76
2022/03/09 04:53:30;;;;;;;4.70;4.25;;;;;;;18.35;31.04;101883.59;5033747;28;20049;-75
2022/03/09 04:55:58;;;;;;;5.43;3.80;;;;;;;18.34;31.06;101890.78;5035464;28;20053;-76
2022/03/09 04:58:27;;;;;;;4.57;4.18;;;;;;;18.34;30.83;101887.22;5034757;28;20046;-76
2022/03/09 05:00:54;;;;;;;4.75;3.90;;;;;;;18.34;31.00;101885.41;5034868;28;20052;-76
2022/03/09 05:03:22;;;;;;;4.32;3.78;;;;;;;18.34;30.87;101889.91;5034908;28;20045;-76
2022/03/09 05:05:49;;;;;;;4.50;4.10;;;;;;;18.34;30.75;101888.09;5033677;28;20049;-76
2022/03/09 05:08:17;;;;;;;5.72;4.00;;;;;;;18.33;30.89;101889.06;5034870;28;20052;-76
2022/03/09 05:10:44;;;;;;;4.70;3.92;;;;;;;18.33;30.97;101893.56;5034115;28;20451;-76
2022/03/09 05:13:12;;;;;;;4.25;3.78;;;;;;;18.33;30.81;101896.25;5035023;28;20048;-76
2022/03/09 05:15:40;;;;;;;5.15;3.83;;;;;;;18.33;30.90;101902.47;5035068;28;20041;-76
2022/03/09 05:18:07;;;;;;;4.65;4.18;;;;;;;18.33;30.88;101896.25;5033336;28;20500;-76
2022/03/09 05:20:34;;;;;;;4.30;3.90;;;;;;;18.33;30.90;101906.97;5035144;28;20068;-75
2022/03/09 05:23:02;;;;;;;5.75;3.75;;;;;;;18.33;30.89;101905.16;5034996;28;20535;-76
2022/03/09 05:25:29;;;;;;;4.10;3.25;;;;;;;18.33;30.99;101901.59;5034647;28;20049;-75
2022/03/09 05:27:59;;;;;;;4.20;3.80;;;;;;;18.32;31.04;101906.13;5034507;28;20045;-76
2022/03/09 05:30:27;;;;;;;4.30;3.88;;;;;;;18.32;31.03;101908.78;5034417;28;20413;-76
2022/03/09 05:32:55;;;;;;;4.43;3.83;;;;;;;18.32;30.91;101910.63;5034576;28;20074;-75
2022/03/09 05:35:22;;;;;;;4.85;3.83;;;;;;;18.32;30.97;101907.94;5034292;28;20049;-76
2022/03/09 05:37:50;;;;;;;4.75;4.25;;;;;;;18.31;31.00;101916.91;5035165;28;20053;-76
2022/03/09 05:40:18;;;;;;;4.90;3.92;;;;;;;18.32;30.97;101924.03;5034663;28;20048;-75
2022/03/09 05:42:45;;;;;;;4.53;3.97;;;;;;;18.31;31.09;101916.91;5033645;28;20042;-75
2022/03/09 05:45:19;;;;;;;3.90;3.33;;;;;;;18.31;31.16;101922.28;5034889;28;20041;-75
2022/03/09 05:47:52;;;;;;;4.75;3.65;;;;;;;18.29;31.13;101928.59;5034817;28;20485;-76
2022/03/09 05:50:20;;;;;;;4.20;3.60;;;;;;;18.31;31.07;101923.16;5034215;28;20484;-76
2022/03/09 05:52:48;;;;;;;5.25;3.88;;;;;;;18.29;31.07;101930.44;5033211;28;20056;-76
2022/03/09 05:55:15;;;;;;;5.07;3.88;;;;;;;18.28;31.28;101934.06;5034368;28;20469;-75
2022/03/09 05:57:46;;;;;;;4.82;3.90;;;;;;;18.28;31.19;101942.97;5017527;28;20053;-75
2022/03/09 06:00:15;;;;;;;6.32;4.20;;;;;;;18.29;31.09;101947.38;5033856;28;20065;-75
2022/03/09 06:02:47;;;;;;;4.05;3.63;;;;;;;18.28;31.21;101940.28;5034481;28;20452;-75
2022/03/09 06:05:18;;;;;;;4.55;4.00;;;;;;;18.28;31.16;101942.97;5034615;28;20045;-75
2022/03/09 06:07:49;;;;;;;3.90;3.42;;;;;;;18.28;31.28;101942.13;5032458;28;20501;-75
2022/03/09 06:10:16;;;;;;;4.18;3.78;;;;;;;18.26;31.09;101936.84;5032502;28;20049;-75
2022/03/09 06:12:44;;;;;;;4.65;3.70;;;;;;;18.27;31.08;101943.94;5033567;28;20056;-75
2022/03/09 06:15:11;;;;;;;4.18;3.50;;;;;;;18.26;31.14;101950.22;5033728;28;20481;-75
2022/03/09 06:17:49;;;;;;;4.38;3.47;;;;;;;18.26;31.08;101958.28;5032471;28;20045;-76
2022/03/09 06:20:21;;;;;;;3.95;3.53;;;;;;;18.25;31.04;101948.53;5034096;28;20056;-76
2022/03/09 06:22:53;;;;;;;4.47;4.00;;;;;;;18.26;31.12;101952.06;5033044;28;20049;-76
2022/03/09 06:25:21;;;;;;;5.25;3.78;;;;;;;18.26;31.05;101960.97;5033600;28;20072;-76
2022/03/09 06:27:51;;;;;;;4.93;4.32;;;;;;;18.26;31.17;101966.31;5015502;28;20060;-76
2022/03/09 06:30:25;;;;;;;4.97;3.60;;;;;;;18.26;31.10;101965.47;5033882;28;20045;-76
2022/03/09 06:32:55;;;;;;;4.85;4.22;;;;;;;18.26;31.23;101974.34;5033427;28;20037;-76
2022/03/09 06:35:23;;;;;;;4.78;4.00;;;;;;;18.25;31.21;101969.97;5033779;28;20041;-76
2022/03/09 06:37:51;;;;;;;4.75;3.85;;;;;;;18.25;31.51;101969.97;5034071;28;20060;-75
2022/03/09 06:40:18;;;;;;;4.97;3.75;;;;;;;18.25;31.12;101974.47;5033437;28;20045;-76
2022/03/09 06:42:45;;;;;;;4.63;3.95;;;;;;;18.24;31.02;101973.59;5032531;28;20048;-75
2022/03/09 06:45:13;;;;;;;4.70;3.92;;;;;;;18.25;31.02;101982.50;5033424;28;20050;-75
2022/03/09 06:47:40;;;;;;;5.03;4.00;;;;;;;18.25;31.17;101980.69;5032561;28;20041;-76
2022/03/09 06:50:09;;;;;;;4.90;3.97;;;;;;;18.25;30.99;101985.19;5033630;28;20052;-76
2022/03/09 06:52:37;;;;;;;5.38;4.25;;;;;;;18.24;30.93;101978.13;5033024;28;20068;-76
2022/03/09 06:55:07;;;;;;;4.85;3.90;;;;;;;18.24;30.80;101983.47;5033093;28;20508;-76
2022/03/09 06:57:36;;;;;;;5.32;4.32;;;;;;;18.23;30.83;101993.34;5033425;28;20079;-76
2022/03/09 07:00:11;;;;;;;5.30;4.10;;;;;;;18.25;30.94;102001.28;5031537;28;20488;-76
2022/03/09 07:02:39;;;;;;;5.18;3.88;;;;;;;18.24;30.94;101997.72;5033612;28;20384;-76
2022/03/09 07:05:07;;;;;;;4.85;3.88;;;;;;;18.25;30.98;102004.81;5033495;28;20056;-76
2022/03/09 07:07:37;;;;;;;4.72;3.83;;;;;;;18.24;30.88;102013.81;5031995;28;20050;-76
2022/03/09 07:10:06;;;;;;;5.65;4.00;;;;;;;18.24;30.87;102016.50;5032963;28;20060;-76
2022/03/09 07:12:37;;;;;;;6.70;4.65;;;;;;;18.24;30.93;102005.78;5033427;28;20052;-77
2022/03/09 07:15:05;;;;;;;4.30;3.78;;;;;;;18.24;31.04;102011.13;5033109;28;20053;-76
2022/03/09 07:17:33;;;;;;;6.75;4.13;;;;;;;18.25;30.94;102006.63;5032492;28;20052;-76
2022/03/09 07:20:00;;;;;;;5.30;4.28;;;;;;;18.25;30.85;102006.63;5033169;28;20116;-76
2022/03/09 07:22:28;;;;;;;5.60;3.97;;;;;;;18.25;30.93;102012.00;5032751;28;20380;-77
2022/03/09 07:24:55;;;;;;;5.82;4.40;;;;;;;18.26;30.94;102011.88;5033384;28;20060;-77
2022/03/09 07:27:22;;;;;;;5.93;4.05;;;;;;;18.26;31.04;102011.88;5032696;28;20052;-76
2022/03/09 07:29:50;;;;;;;5.88;3.97;;;;;;;18.26;31.14;102019.94;5032755;28;20400;-78
2022/03/09 07:32:17;;;;;;;5.97;4.10;;;;;;;18.27;31.05;102023.47;5032787;28;20046;-77
2022/03/09 07:35:08;;;;;;;6.05;4.00;;;;;;;18.28;31.03;102019.84;5033542;28;20042;-77
2022/03/09 07:37:36;;;;;;;5.28;4.05;;;;;;;18.28;31.00;102019.84;5032465;28;20089;-79
2022/03/09 07:40:05;;;;;;;6.55;4.38;;;;;;;18.30;31.10;102025.97;5032643;28;20045;-78
2022/03/09 07:42:33;;;;;;;8.38;4.18;;;;;;;18.30;31.39;102023.28;5035540;28;20043;-77
2022/03/09 07:45:03;;;;;;;6.07;4.55;;;;;;;18.31;31.23;102024.13;5036628;28;20107;-76
2022/03/09 07:47:32;;;;;;;11.05;4.47;;;;;;;18.33;31.24;102028.47;5035548;28;20424;-75
2022/03/09 07:50:01;;;;;;;6.70;4.57;;;;;;;18.32;31.31;102026.75;5035926;28;20056;-76
2022/03/09 07:52:29;;;;;;;6.07;4.40;;;;;;;18.31;31.27;102030.41;5036295;28;20049;-75
2022/03/09 07:54:56;;;;;;;6.97;4.53;;;;;;;18.31;31.19;102022.34;5035734;28;20045;-75
2022/03/09 07:57:24;;;;;;;7.45;4.65;;;;;;;18.31;31.15;102018.78;5036572;28;20049;-76
2022/03/09 07:59:51;;;;;;;6.20;4.60;;;;;;;18.29;31.17;102016.22;5035007;28;20057;-75
2022/03/09 08:02:18;;;;;;;7.07;4.97;;;;;;;18.30;31.20;102017.91;5036816;28;20041;-76
2022/03/09 08:04:46;;;;;;;14.68;11.88;;;;;;;18.22;27.84;102023.75;5035323;28;20057;-76
2022/03/09 08:07:13;;;;;;;16.20;14.18;;;;;;;17.96;26.85;102020.03;5040707;28;20049;-75
2022/03/09 08:09:40;;;;;;;19.92;15.20;;;;;;;17.60;27.13;102019.53;5056907;28;20384;-74
2022/03/09 08:12:11;;;;;;;16.40;13.63;;;;;;;17.28;26.94;102020.47;5054914;28;20049;-74
2022/03/09 08:14:39;;;;;;;18.08;13.95;;;;;;;17.09;27.12;102025.16;5056136;28;20492;-74
2022/03/09 08:17:15;;;;;;;18.80;13.52;;;;;;;16.98;27.02;102023.13;5056713;28;20053;-75
2022/03/09 08:19:42;;;;;;;17.33;13.60;;;;;;;17.01;27.16;102022.97;5055868;28;20049;-74
2022/03/09 08:22:10;;;;;;;15.75;12.65;;;;;;;16.94;26.85;102020.72;5054476;28;20076;-74
2022/03/09 08:24:38;;;;;;;13.07;11.52;;;;;;;17.04;26.71;102027.25;5055839;28;20045;-74
2022/03/09 08:27:06;;;;;;;16.05;12.77;;;;;;;17.03;26.30;102022.84;5054652;28;20037;-75
2022/03/09 08:29:34;;;;;;;16.80;13.23;;;;;;;17.09;26.35;102026.97;5055742;28;20056;-74
2022/03/09 08:32:01;;;;;;;15.07;13.07;;;;;;;17.09;25.82;102027.84;5056015;28;20404;-74
2022/03/09 08:34:29;;;;;;;15.45;13.77;;;;;;;17.12;25.91;102032.16;5054590;28;20060;-74
2022/03/09 08:36:56;;;;;;;16.15;13.68;;;;;;;17.14;25.88;102024.94;5055880;28;20037;-75
2022/03/09 08:39:24;;;;;;;17.60;12.70;;;;;;;17.18;26.15;102023.78;5055377;28;20048;-75
2022/03/09 08:41:52;;;;;;;16.45;13.95;;;;;;;17.24;26.16;102021.59;5054160;28;20045;-75
2022/03/09 08:44:39;;;;;;;13.13;11.05;;;;;;;17.30;27.73;102023.94;5055505;28;20045;-75
2022/03/09 08:47:07;;;;;;;14.25;10.38;;;;;;;17.39;28.38;102021.69;5055205;28;20045;-74
2022/03/09 08:49:39;;;;;;;11.90;9.55;;;;;;;17.46;28.70;102018.56;5055046;28;20056;-75
2022/03/09 08:52:08;;;;;;;12.73;9.15;;;;;;;17.52;28.82;102007.47;5055096;28;20045;-75
2022/03/09 08:54:35;;;;;;;11.32;9.63;;;;;;;17.59;28.80;102007.97;5055375;28;20064;-75
2022/03/09 08:57:04;;;;;;;12.77;9.32;;;;;;;17.64;28.97;101996.97;5053850;28;20045;-74
2022/03/09 08:59:32;;;;;;;11.52;9.05;;;;;;;17.68;29.05;102002.06;5046736;28;20393;-75
2022/03/09 09:01:59;;;;;;;10.00;8.35;;;;;;;17.71;29.05;102001.88;5035052;28;20045;-75
2022/03/09 09:04:27;;;;;;;11.38;8.52;;;;;;;17.74;29.08;101999.06;5035013;28;20049;-75
2022/03/09 09:06:55;;;;;;;10.68;9.02;;;;;;;17.77;29.24;102001.53;5035101;28;20370;-75
2022/03/09 09:09:25;;;;;;;13.40;11.63;;;;;;;17.80;27.47;101997.81;5035310;28;20050;-75
2022/03/09 09:11:54;;;;;;;16.98;13.15;;;;;;;17.81;26.21;102001.34;5035598;28;20045;-75
2022/03/09 09:14:22;;;;;;;16.95;14.23;;;;;;;17.77;25.59;101996.16;5035532;28;20480;-75
2022/03/09 09:16:49;;;;;;;14.88;13.27;;;;;;;17.76;25.38;101998.94;5033367;28;20049;-75
2022/03/09 09:19:17;;;;;;;14.93;13.32;;;;;;;17.73;26.21;101996.41;5034476;28;20053;-75
2022/03/09 09:21:46;;;;;;;13.32;11.43;;;;;;;17.73;27.41;102005.31;5034480;28;20048;-75
2022/03/09 09:24:14;;;;;;;15.73;11.02;;;;;;;17.75;27.74;101997.22;5034868;28;20046;-75
2022/03/09 09:26:44;;;;;;;11.18;10.00;;;;;;;17.76;28.06;101997.13;5034980;28;20053;-75
2022/03/09 09:29:20;;;;;;;13.95;10.98;;;;;;;17.78;28.24;102000.59;5034667;28;20049;-75
2022/03/09 09:31:48;;;;;;;11.70;10.48;;;;;;;17.79;28.31;101996.94;5034403;28;20401;-75
2022/03/09 09:34:16;;;;;;;11.90;8.73;;;;;;;17.83;28.50;101988.72;5033309;28;20064;-75
2022/03/09 09:36:47;;;;;;;11.13;10.02;;;;;;;17.84;28.50;101979.72;5034701;28;20076;-75
2022/03/09 09:39:16;;;;;;;11.15;9.95;;;;;;;17.85;28.62;101976.94;5033456;28;20049;-74
2022/03/09 09:41:46;;;;;;;12.55;9.32;;;;;;;17.87;28.87;101976.88;5032850;28;20064;-75
2022/03/09 09:44:15;;;;;;;10.90;9.30;;;;;;;17.88;28.96;101976.75;5034914;28;20054;-77
2022/03/09 09:46:43;;;;;;;9.65;8.75;;;;;;;17.89;28.94;101967.75;5033297;28;20054;-76
2022/03/09 09:49:13;;;;;;;11.35;8.65;;;;;;;17.91;29.09;101976.59;5034688;28;20045;-76
2022/03/09 09:51:44;;;;;;;10.65;8.38;;;;;;;17.92;29.08;101978.31;5038993;28;20041;-76
2022/03/09 09:54:13;;;;;;;9.55;8.60;;;;;;;17.93;29.16;101973.81;5054403;28;20052;-76
2022/03/09 09:56:42;;;;;;;11.07;8.32;;;;;;;17.94;29.30;101970.16;5053121;28;20045;-76
2022/03/09 09:59:10;;;;;;;9.75;8.30;;;;;;;17.95;29.43;101971.91;5052508;28;20049;-76
2022/03/09 10:01:40;;;;;;;9.57;8.68;;;;;;;17.95;29.45;101970.09;5053768;28;20061;-76
2022/03/09 10:04:08;;;;;;;10.40;8.35;;;;;;;17.95;29.58;101967.41;5053171;28;20049;-76
2022/03/09 10:06:37;;;;;;;8.95;7.85;;;;;;;17.96;29.43;101969.13;5053999;28;20044;-76
2022/03/09 10:09:12;;;;;;;7.82;7.03;;;;;;;17.96;29.68;101969.13;5052045;28;20037;-76
2022/03/09 10:11:56;;;;;;;9.25;7.57;;;;;;;17.98;29.98;101966.31;5053625;28;20499;-76
2022/03/09 10:14:53;;;;;;;8.10;7.25;;;;;;;17.99;29.64;101962.72;5037842;28;20369;-76
2022/03/09 10:17:23;;;;;;;8.60;7.68;;;;;;;17.99;29.64;101968.06;5032381;28;20052;-76
2022/03/09 10:20:07;;;;;;;9.18;7.32;;;;;;;18.00;29.86;101964.44;5033749;28;20049;-76
2022/03/09 10:22:35;;;;;;;9.18;8.25;;;;;;;18.01;29.69;101960.78;5017676;28;20064;-76
2022/03/09 10:25:20;;;;;;;9.05;8.15;;;;;;;18.02;29.60;101959.81;5032239;28;20056;-76
2022/03/09 10:27:53;;;;;;;8.00;7.18;;;;;;;18.02;29.69;101952.66;5033762;28;20477;-76
2022/03/09 10:30:30;;;;;;;12.55;7.95;;;;;;;18.03;29.71;101959.75;5033208;28;20045;-76
2022/03/09 10:32:59;;;;;;;9.05;7.65;;;;;;;18.03;29.77;101946.34;5033499;28;20410;-76
2022/03/09 10:35:30;;;;;;;9.02;7.82;;;;;;;18.03;29.86;101954.38;5033377;28;20045;-76
2022/03/09 10:38:05;;;;;;;9.77;7.32;;;;;;;18.04;29.83;101947.22;5032894;28;20041;-76
2022/03/09 10:40:40;;;;;;;9.18;7.43;;;;;;;18.03;29.91;101945.50;5033328;28;20480;-76
2022/03/09 10:43:12;;;;;;;8.18;7.07;;;;;;;18.04;29.88;101944.53;5033400;28;20052;-76
2022/03/09 10:46:18;;;;;;;7.18;6.43;;;;;;;18.04;29.92;101940.03;5047896;28;20044;-76
2022/03/09 10:48:55;;;;;;;7.55;6.75;;;;;;;18.06;29.85;101941.75;5050674;28;20535;-76
2022/03/09 10:51:31;;;;;;;9.43;7.45;;;;;;;18.06;29.90;101936.38;5034899;28;20056;-76
2022/03/09 10:54:08;;;;;;;8.07;7.05;;;;;;;18.06;30.03;101933.69;5034539;28;20053;-76
2022/03/09 10:56:36;;;;;;;8.30;6.97;;;;;;;18.07;30.09;101922.00;5050826;28;20075;-76
2022/03/09 10:59:15;;;;;;;9.57;6.45;;;;;;;18.07;30.08;101927.38;5050161;28;20049;-76
2022/03/09 11:01:43;;;;;;;7.18;6.32;;;;;;;18.06;30.00;101923.84;5051073;28;20061;-76
2022/03/09 11:04:16;;;;;;;8.45;6.60;;;;;;;18.08;29.99;101923.75;5050961;28;20528;-76
2022/03/09 11:06:46;;;;;;;8.35;7.22;;;;;;;18.07;30.20;101922.00;5033726;28;20056;-76
2022/03/09 11:09:18;;;;;;;6.93;6.20;;;;;;;18.08;30.07;101921.09;5033372;28;20041;-76
2022/03/09 11:11:46;;;;;;;7.65;6.85;;;;;;;18.09;29.89;101915.63;5034486;28;20048;-76
2022/03/09 11:14:16;;;;;;;7.53;6.75;;;;;;;18.10;30.14;101921.84;5033432;28;20045;-76
2022/03/09 11:16:45;;;;;;;9.18;7.15;;;;;;;18.08;30.05;101921.94;5053837;28;20072;-76
2022/03/09 11:19:13;;;;;;;7.25;6.55;;;;;;;18.10;30.15;101919.16;5055858;28;20057;-76
2022/03/09 11:21:41;;;;;;;7.65;6.85;;;;;;;18.10;30.01;101911.97;5056603;28;20044;-76
2022/03/09 11:24:14;;;;;;;6.55;5.90;;;;;;;18.09;29.99;101907.56;5056700;28;20049;-76
2022/03/09 11:26:46;;;;;;;7.63;6.82;;;;;;;18.10;29.94;101906.59;5056862;28;20056;-76
2022/03/09 11:29:14;;;;;;;6.60;5.97;;;;;;;18.11;30.06;101897.63;5056865;28;20063;-76
2022/03/09 11:31:43;;;;;;;7.78;6.10;;;;;;;18.11;30.10;101897.63;5056763;28;20049;-76
2022/03/09 11:34:32;;;;;;;7.30;6.60;;;;;;;18.11;30.25;101892.28;5055068;28;20056;-76